sim
Sign-in with your pilot id or email,
or register
Callsign
Passwort

Schedule Details

Flight Number: OEO5778
Departure: Frankfurt Airport (EDDF) at 04:45
Arrival: Fuerteventura Airport (GCFV) at 09:40

Weather Information
Getting current METAR information for EDDF 192250Z 02013KT CAVOK 16/04 Q1028 NOSIG
Getting current METAR information for GCFV 192230Z AUTO 35014KT 9999 FEW028 18/12 Q1018

Schedule Frequency

Route Map